Time;durP1;ratioP1;P1;durP2;ratioP2;P2;SDS_P1;SDS_P2;PMS_P1;PMS_P2;Temp;Humidity;BMP_temperature;BMP_pressure;BME280_temperature;BME280_humidity;BME280_pressure;Samples;Min_cycle;Max_cycle;Signal;HPM_P1;HPM_P2
2022/11/28 00:01:08;;;;;;;28.52;14.00;;;;;;;;;;5113281;28;20031;-75
2022/11/28 00:03:34;;;;;;;16.05;9.10;;;;;;;;;;5111792;28;20390;-75
2022/11/28 00:06:06;;;;;;;21.42;10.77;;;;;;;;;;5112054;28;20031;-72
2022/11/28 00:08:33;;;;;;;32.75;17.02;;;;;;;;;;5111920;28;20161;-72
2022/11/28 00:11:02;;;;;;;24.83;13.32;;;;;;;;;;5112206;28;20470;-73
2022/11/28 00:13:28;;;;;;;27.33;14.63;;;;;;;;;;5113320;28;20062;-71
2022/11/28 00:15:59;;;;;;;30.73;14.10;;;;;;;;;;5113434;28;20363;-72
2022/11/28 00:18:25;;;;;;;37.25;18.02;;;;;;;;;;5112054;28;20390;-74
2022/11/28 00:20:50;;;;;;;17.77;10.30;;;;;;;;;;5113240;28;20027;-74
2022/11/28 00:23:16;;;;;;;35.03;17.98;;;;;;;;;;5113361;28;20023;-72
2022/11/28 00:25:41;;;;;;;31.60;15.02;;;;;;;;;;5113010;28;20478;-77
2022/11/28 00:28:07;;;;;;;19.95;11.55;;;;;;;;;;5113288;28;20046;-72
2022/11/28 00:30:37;;;;;;;34.50;15.60;;;;;;;;;;5113195;28;20035;-73
2022/11/28 00:33:02;;;;;;;28.67;16.10;;;;;;;;;;5113081;28;20107;-74
2022/11/28 00:35:28;;;;;;;22.77;12.32;;;;;;;;;;5112922;28;20774;-74
2022/11/28 00:37:53;;;;;;;29.00;15.25;;;;;;;;;;5113268;28;20076;-74
2022/11/28 00:40:19;;;;;;;36.05;18.42;;;;;;;;;;5113221;28;20023;-73
2022/11/28 00:42:44;;;;;;;16.15;10.35;;;;;;;;;;5113007;28;20416;-74
2022/11/28 00:45:10;;;;;;;27.55;14.95;;;;;;;;;;5113014;28;20032;-77
2022/11/28 00:47:35;;;;;;;33.00;16.38;;;;;;;;;;5113084;28;20028;-77
2022/11/28 00:50:01;;;;;;;25.38;12.68;;;;;;;;;;5113049;28;20374;-78
2022/11/28 00:52:26;;;;;;;35.90;17.85;;;;;;;;;;5113197;28;20459;-77
2022/11/28 00:54:52;;;;;;;23.63;12.77;;;;;;;;;;5113063;28;20076;-77
2022/11/28 00:57:17;;;;;;;35.47;17.25;;;;;;;;;;5115557;28;20351;-77
2022/11/28 00:59:42;;;;;;;21.67;11.98;;;;;;;;;;5117151;28;20545;-76
2022/11/28 01:02:08;;;;;;;31.02;12.95;;;;;;;;;;5116926;27;20016;-77
2022/11/28 01:04:33;;;;;;;13.57;7.22;;;;;;;;;;5117054;28;20428;-76
2022/11/28 01:06:59;;;;;;;25.27;10.32;;;;;;;;;;5117079;28;20061;-75
2022/11/28 01:09:24;;;;;;;35.17;16.63;;;;;;;;;;5116981;28;20030;-71
2022/11/28 01:11:52;;;;;;;28.75;15.43;;;;;;;;;;5116927;27;20035;-75
2022/11/28 01:14:20;;;;;;;38.47;16.25;;;;;;;;;;5117005;28;20140;-71
2022/11/28 01:16:46;;;;;;;34.95;17.88;;;;;;;;;;5116534;28;20470;-72
2022/11/28 01:19:12;;;;;;;32.17;16.48;;;;;;;;;;5116785;28;20032;-72
2022/11/28 01:21:38;;;;;;;26.73;14.27;;;;;;;;;;5116828;28;20102;-75
2022/11/28 01:24:04;;;;;;;25.05;14.57;;;;;;;;;;5116638;28;20526;-72
2022/11/28 01:26:30;;;;;;;29.63;15.02;;;;;;;;;;5116521;28;20291;-71
2022/11/28 01:28:57;;;;;;;30.67;14.68;;;;;;;;;;5116601;28;20072;-78
2022/11/28 01:31:26;;;;;;;29.98;14.80;;;;;;;;;;5116559;28;20496;-77
2022/11/28 01:33:51;;;;;;;26.95;13.23;;;;;;;;;;5116388;28;20031;-77
2022/11/28 01:36:18;;;;;;;27.90;11.05;;;;;;;;;;5116598;28;20030;-78
2022/11/28 01:38:44;;;;;;;15.07;6.95;;;;;;;;;;5116191;28;20098;-75
2022/11/28 01:41:10;;;;;;;31.40;13.55;;;;;;;;;;5116394;28;20031;-77
2022/11/28 01:43:36;;;;;;;26.50;14.85;;;;;;;;;;5116177;27;20038;-76
2022/11/28 01:46:03;;;;;;;28.02;12.00;;;;;;;;;;5115034;28;20069;-77
2022/11/28 01:48:38;;;;;;;23.98;12.98;;;;;;;;;;5116354;28;20019;-76
2022/11/28 01:51:07;;;;;;;17.40;9.57;;;;;;;;;;5116176;27;20102;-74
2022/11/28 01:53:36;;;;;;;17.52;8.93;;;;;;;;;;5116223;28;20023;-75
2022/11/28 01:56:07;;;;;;;19.33;10.95;;;;;;;;;;5116069;28;20469;-77
2022/11/28 01:58:35;;;;;;;24.45;12.90;;;;;;;;;;5115703;28;20069;-76
2022/11/28 02:01:01;;;;;;;23.17;12.52;;;;;;;;;;5115780;28;20028;-73
2022/11/28 02:03:39;;;;;;;27.50;13.70;;;;;;;;;;5116023;28;20032;-74
2022/11/28 02:06:05;;;;;;;34.42;16.10;;;;;;;;;;5114857;28;20045;-74
2022/11/28 02:08:33;;;;;;;16.42;9.35;;;;;;;;;;5114975;27;20517;-72
2022/11/28 02:11:13;;;;;;;19.40;10.25;;;;;;;;;;5115793;28;20019;-77
2022/11/28 02:14:06;;;;;;;16.52;9.43;;;;;;;;;;5115634;28;20036;-75
2022/11/28 02:17:02;;;;;;;14.07;7.82;;;;;;;;;;5115740;28;20024;-72
2022/11/28 02:20:07;;;;;;;20.63;8.63;;;;;;;;;;5115795;28;20492;-73
2022/11/28 02:22:35;;;;;;;13.20;7.63;;;;;;;;;;5115679;28;20024;-72
2022/11/28 02:25:20;;;;;;;25.48;12.77;;;;;;;;;;5115226;28;20034;-74
2022/11/28 02:27:48;;;;;;;15.10;8.13;;;;;;;;;;5115316;27;20085;-72
2022/11/28 02:30:35;;;;;;;18.65;9.30;;;;;;;;;;5114155;28;20024;-73
2022/11/28 02:33:09;;;;;;;19.70;10.85;;;;;;;;;;5115022;28;20072;-72
2022/11/28 02:35:45;;;;;;;22.00;10.70;;;;;;;;;;5115289;28;20463;-75
2022/11/28 02:38:34;;;;;;;17.83;11.00;;;;;;;;;;5114080;28;20030;-72
2022/11/28 02:41:18;;;;;;;21.60;10.25;;;;;;;;;;5115408;28;20076;-75
2022/11/28 02:43:49;;;;;;;22.42;11.85;;;;;;;;;;5115140;28;20474;-72
2022/11/28 02:46:30;;;;;;;19.70;13.93;;;;;;;;;;5113981;28;20028;-72
2022/11/28 02:49:07;;;;;;;18.25;9.55;;;;;;;;;;5115205;28;20035;-72
2022/11/28 02:51:37;;;;;;;15.90;9.55;;;;;;;;;;5115175;28;20023;-72
2022/11/28 02:54:03;;;;;;;;;;;;;;;;;;5115441;28;20039;-72
2022/11/28 02:56:29;;;;;;;19.75;9.90;;;;;;;;;;5114715;28;19912;-72
2022/11/28 02:58:54;;;;;;;22.52;11.15;;;;;;;;;;5114897;28;20092;-73
2022/11/28 03:01:37;;;;;;;18.65;9.40;;;;;;;;;;5114836;28;20088;-71
2022/11/28 03:04:15;;;;;;;17.10;8.32;;;;;;;;;;5113528;28;20025;-72
2022/11/28 03:06:50;;;;;;;18.05;7.80;;;;;;;;;;5114766;28;20095;-72
2022/11/28 03:09:46;;;;;;;17.98;9.90;;;;;;;;;;5114809;28;20023;-71
2022/11/28 03:12:41;;;;;;;24.15;12.65;;;;;;;;;;5114431;28;20035;-72
2022/11/28 03:15:10;;;;;;;20.15;9.50;;;;;;;;;;5114782;28;20467;-71
2022/11/28 03:17:47;;;;;;;20.42;10.43;;;;;;;;;;5114861;28;20027;-77
2022/11/28 03:20:12;;;;;;;23.00;12.02;;;;;;;;;;5114604;28;20381;-77
2022/11/28 03:23:00;;;;;;;18.88;11.65;;;;;;;;;;5114542;28;20036;-78
2022/11/28 03:25:35;;;;;;;28.83;13.95;;;;;;;;;;5114104;28;20558;-76
2022/11/28 03:28:00;;;;;;;32.50;15.02;;;;;;;;;;5114529;28;20055;-77
2022/11/28 03:30:48;;;;;;;18.80;11.98;;;;;;;;;;5114351;28;20032;-74
2022/11/28 03:33:15;;;;;;;32.05;14.80;;;;;;;;;;5114272;28;20020;-78
2022/11/28 03:35:46;;;;;;;28.58;12.75;;;;;;;;;;5114054;28;20079;-78
2022/11/28 03:38:26;;;;;;;23.73;11.48;;;;;;;;;;5114230;28;20020;-78
2022/11/28 03:40:56;;;;;;;14.95;8.50;;;;;;;;;;5114072;28;20024;-77
2022/11/28 03:43:24;;;;;;;;;;;;;;;;;;5114597;28;20016;-78
2022/11/28 03:45:54;;;;;;;15.20;9.65;;;;;;;;;;5114027;28;19920;-79
2022/11/28 03:48:37;;;;;;;29.97;13.00;;;;;;;;;;5112716;28;20420;-78
2022/11/28 03:51:11;;;;;;;23.77;11.60;;;;;;;;;;5113862;28;20275;-77
2022/11/28 03:54:06;;;;;;;18.15;9.18;;;;;;;;;;5114020;28;20020;-77
2022/11/28 03:56:52;;;;;;;32.67;13.73;;;;;;;;;;5113841;28;20027;-77
2022/11/28 03:59:43;;;;;;;23.30;12.75;;;;;;;;;;5113646;28;20450;-75
2022/11/28 04:02:37;;;;;;;28.58;12.73;;;;;;;;;;5113775;28;20038;-78
2022/11/28 04:05:14;;;;;;;21.00;11.13;;;;;;;;;;5113725;28;20031;-78
2022/11/28 04:07:42;;;;;;;27.98;12.55;;;;;;;;;;5113780;28;20023;-75
2022/11/28 04:10:15;;;;;;;22.80;10.73;;;;;;;;;;5113297;28;20028;-78
2022/11/28 04:12:51;;;;;;;27.50;12.73;;;;;;;;;;5113741;28;20381;-76
2022/11/28 04:15:25;;;;;;;22.13;12.00;;;;;;;;;;5113647;28;20019;-79
2022/11/28 04:18:14;;;;;;;29.85;14.13;;;;;;;;;;5113783;28;20028;-73
2022/11/28 04:20:55;;;;;;;25.10;11.85;;;;;;;;;;5113252;28;20024;-75
2022/11/28 04:23:21;;;;;;;23.30;9.70;;;;;;;;;;5113227;28;20112;-72
2022/11/28 04:25:54;;;;;;;23.98;11.23;;;;;;;;;;5104918;28;20116;-72
2022/11/28 04:28:23;;;;;;;24.95;11.18;;;;;;;;;;5113547;28;20072;-71
2022/11/28 04:30:51;;;;;;;23.98;12.38;;;;;;;;;;5113041;28;20180;-72
2022/11/28 04:33:20;;;;;;;29.65;12.38;;;;;;;;;;5113301;28;20035;-72
2022/11/28 04:35:50;;;;;;;26.23;12.82;;;;;;;;;;5113164;28;20062;-71
2022/11/28 04:38:16;;;;;;;30.92;12.75;;;;;;;;;;5113125;28;20041;-72
2022/11/28 04:41:17;;;;;;;25.13;11.77;;;;;;;;;;5113194;28;20027;-74
2022/11/28 04:43:49;;;;;;;;;;;;;;;;;;5050522;28;20052;-73
2022/11/28 04:46:23;;;;;;;14.05;7.22;;;;;;;;;;5050456;28;20437;-72
2022/11/28 04:48:49;;;;;;;33.67;12.20;;;;;;;;;;5050453;28;20056;-73
2022/11/28 04:51:15;;;;;;;14.90;8.50;;;;;;;;;;5050160;28;20492;-72
2022/11/28 04:53:43;;;;;;;26.98;11.77;;;;;;;;;;5050227;28;20426;-72
2022/11/28 04:56:15;;;;;;;27.92;12.18;;;;;;;;;;5050405;28;20060;-72
2022/11/28 04:58:44;;;;;;;32.60;13.70;;;;;;;;;;5050202;28;20036;-71
2022/11/28 05:01:16;;;;;;;29.70;14.35;;;;;;;;;;5050295;28;20392;-74
2022/11/28 05:03:42;;;;;;;24.67;10.98;;;;;;;;;;5050358;28;20028;-77
2022/11/28 05:06:08;;;;;;;29.75;13.10;;;;;;;;;;5050481;28;20552;-74
2022/11/28 05:08:33;;;;;;;18.02;9.73;;;;;;;;;;5050104;28;20029;-77
2022/11/28 05:10:59;;;;;;;33.20;13.57;;;;;;;;;;5050455;28;20040;-74
2022/11/28 05:13:24;;;;;;;34.80;13.55;;;;;;;;;;5050246;28;20120;-75
2022/11/28 05:15:51;;;;;;;36.30;14.57;;;;;;;;;;5049945;28;20044;-75
2022/11/28 05:18:16;;;;;;;22.05;11.30;;;;;;;;;;5040193;28;20114;-76
2022/11/28 05:20:42;;;;;;;32.78;13.90;;;;;;;;;;5112675;28;20023;-71
2022/11/28 05:23:07;;;;;;;28.48;12.38;;;;;;;;;;5112737;28;20031;-76
2022/11/28 05:25:33;;;;;;;33.72;14.70;;;;;;;;;;5112494;28;20031;-74
2022/11/28 05:27:58;;;;;;;38.08;15.63;;;;;;;;;;5112713;28;20483;-74
2022/11/28 05:30:24;;;;;;;37.95;16.70;;;;;;;;;;5112629;28;20409;-73
2022/11/28 05:32:49;;;;;;;42.13;18.25;;;;;;;;;;5112924;28;20066;-75
2022/11/28 05:35:15;;;;;;;45.10;19.27;;;;;;;;;;5112588;28;20104;-73
2022/11/28 05:37:40;;;;;;;29.17;15.20;;;;;;;;;;5112741;28;20378;-74
2022/11/28 05:40:06;;;;;;;32.88;16.63;;;;;;;;;;5112488;28;20051;-78
2022/11/28 05:42:33;;;;;;;39.65;17.92;;;;;;;;;;5112425;28;20023;-76
2022/11/28 05:44:59;;;;;;;29.55;14.10;;;;;;;;;;5116085;28;20034;-76
2022/11/28 05:47:25;;;;;;;35.17;19.80;;;;;;;;;;5116238;27;20316;-74
2022/11/28 05:49:50;;;;;;;45.30;19.77;;;;;;;;;;5116287;28;20035;-78
2022/11/28 05:52:16;;;;;;;41.42;19.30;;;;;;;;;;5116166;28;20081;-78
2022/11/28 05:54:41;;;;;;;33.67;15.05;;;;;;;;;;5116306;28;20113;-77
2022/11/28 05:57:07;;;;;;;32.45;16.33;;;;;;;;;;5116399;27;20091;-76
2022/11/28 05:59:33;;;;;;;34.20;17.90;;;;;;;;;;5115847;28;20044;-78
2022/11/28 06:01:58;;;;;;;57.40;21.95;;;;;;;;;;5115989;28;20027;-78
2022/11/28 06:04:24;;;;;;;39.33;17.23;;;;;;;;;;5115816;27;20084;-78
2022/11/28 06:06:50;;;;;;;52.28;21.10;;;;;;;;;;5115544;28;20042;-78
2022/11/28 06:09:16;;;;;;;43.35;20.08;;;;;;;;;;5115754;28;20377;-78
2022/11/28 06:11:41;;;;;;;41.70;18.58;;;;;;;;;;5115819;28;20094;-74
2022/11/28 06:14:09;;;;;;;49.30;21.23;;;;;;;;;;5115992;27;20470;-77
2022/11/28 06:16:35;;;;;;;43.38;18.00;;;;;;;;;;5115730;27;20027;-76
2022/11/28 06:19:02;;;;;;;34.13;15.82;;;;;;;;;;5115428;28;20020;-77
2022/11/28 06:21:28;;;;;;;50.75;22.67;;;;;;;;;;5115474;28;20015;-76
2022/11/28 06:23:55;;;;;;;37.58;17.10;;;;;;;;;;5115571;28;20051;-76
2022/11/28 06:26:22;;;;;;;46.10;19.35;;;;;;;;;;5115321;28;20063;-77
2022/11/28 06:28:49;;;;;;;34.10;15.48;;;;;;;;;;5115373;28;20023;-72
2022/11/28 06:31:17;;;;;;;35.85;14.23;;;;;;;;;;5115420;28;20035;-72
2022/11/28 06:33:43;;;;;;;50.00;20.70;;;;;;;;;;5114812;27;20024;-74
2022/11/28 06:36:09;;;;;;;44.13;19.85;;;;;;;;;;5115457;28;20096;-76
2022/11/28 06:38:35;;;;;;;36.40;17.13;;;;;;;;;;5115314;28;20016;-72
2022/11/28 06:41:04;;;;;;;32.25;16.65;;;;;;;;;;5115263;28;20031;-72
2022/11/28 06:43:30;;;;;;;45.17;21.35;;;;;;;;;;5115227;28;20053;-71
2022/11/28 06:45:57;;;;;;;38.22;19.05;;;;;;;;;;5115092;28;20067;-71
2022/11/28 06:48:23;;;;;;;38.78;18.98;;;;;;;;;;5114696;28;20038;-71
2022/11/28 06:50:49;;;;;;;28.02;14.40;;;;;;;;;;5115015;28;20034;-70
2022/11/28 06:53:15;;;;;;;24.63;12.63;;;;;;;;;;5115023;28;20055;-72
2022/11/28 06:55:41;;;;;;;42.50;19.13;;;;;;;;;;5114742;28;20499;-74
2022/11/28 06:58:06;;;;;;;22.92;11.18;;;;;;;;;;5114895;28;20030;-76
2022/11/28 07:00:33;;;;;;;27.75;14.35;;;;;;;;;;5114647;28;20056;-72
2022/11/28 07:02:58;;;;;;;41.70;18.67;;;;;;;;;;5114741;28;20027;-72
2022/11/28 07:05:27;;;;;;;28.23;13.45;;;;;;;;;;5114764;28;20038;-73
2022/11/28 07:07:53;;;;;;;32.55;16.83;;;;;;;;;;5114574;28;20027;-78
2022/11/28 07:10:20;;;;;;;23.38;12.68;;;;;;;;;;5114699;28;20091;-76
2022/11/28 07:12:45;;;;;;;27.40;11.38;;;;;;;;;;5114737;28;20028;-76
2022/11/28 07:15:11;;;;;;;34.00;17.90;;;;;;;;;;5114446;28;20399;-77
2022/11/28 07:17:36;;;;;;;45.67;22.45;;;;;;;;;;5114714;28;20041;-78
2022/11/28 07:20:03;;;;;;;23.38;12.77;;;;;;;;;;5114664;28;20020;-77
2022/11/28 07:22:30;;;;;;;26.23;14.20;;;;;;;;;;5114324;28;20030;-74
2022/11/28 07:24:56;;;;;;;26.52;15.55;;;;;;;;;;5114235;28;20031;-73
2022/11/28 07:27:21;;;;;;;46.08;18.33;;;;;;;;;;5114391;28;20281;-77
2022/11/28 07:29:47;;;;;;;28.02;14.55;;;;;;;;;;5114179;28;20084;-70
2022/11/28 07:32:12;;;;;;;22.73;12.40;;;;;;;;;;5114299;28;20063;-71
2022/11/28 07:34:40;;;;;;;42.30;20.15;;;;;;;;;;5114064;27;20047;-72
2022/11/28 07:37:05;;;;;;;40.95;16.98;;;;;;;;;;5114307;28;20043;-70
2022/11/28 07:39:31;;;;;;;36.97;17.75;;;;;;;;;;5113983;28;20304;-74
2022/11/28 07:41:56;;;;;;;61.05;27.58;;;;;;;;;;5114139;28;20066;-70
2022/11/28 07:44:22;;;;;;;44.15;21.35;;;;;;;;;;5112681;28;20062;-70
2022/11/28 07:46:47;;;;;;;47.88;23.50;;;;;;;;;;5113699;28;20439;-71
2022/11/28 07:49:13;;;;;;;47.13;26.45;;;;;;;;;;5113789;28;20104;-72
2022/11/28 07:51:40;;;;;;;44.45;22.13;;;;;;;;;;5113807;28;20015;-71
2022/11/28 07:54:06;;;;;;;44.85;22.33;;;;;;;;;;5113895;28;20038;-71
2022/11/28 07:56:34;;;;;;;35.33;17.45;;;;;;;;;;5113884;28;20019;-70
2022/11/28 07:59:00;;;;;;;43.35;22.17;;;;;;;;;;5113809;28;20023;-73
2022/11/28 08:01:28;;;;;;;45.05;21.75;;;;;;;;;;5113663;28;20035;-70
2022/11/28 08:03:54;;;;;;;49.50;19.50;;;;;;;;;;5113507;28;20522;-74
2022/11/28 08:06:26;;;;;;;31.27;16.95;;;;;;;;;;5112934;28;20027;-71
2022/11/28 08:08:53;;;;;;;32.33;17.42;;;;;;;;;;5113665;28;20020;-73
2022/11/28 08:11:21;;;;;;;53.38;25.02;;;;;;;;;;5113515;28;20058;-73
2022/11/28 08:13:47;;;;;;;42.20;20.80;;;;;;;;;;5111354;28;20073;-75
2022/11/28 08:16:21;;;;;;;42.53;21.50;;;;;;;;;;5110173;28;20043;-75
2022/11/28 08:18:47;;;;;;;49.90;25.17;;;;;;;;;;5113152;28;20502;-75
2022/11/28 08:21:23;;;;;;;42.45;23.50;;;;;;;;;;5113620;28;20045;-78
2022/11/28 08:23:50;;;;;;;36.00;15.65;;;;;;;;;;5113290;28;20024;-75
2022/11/28 08:26:19;;;;;;;24.77;14.98;;;;;;;;;;5113285;28;20363;-75
2022/11/28 08:28:44;;;;;;;38.25;19.27;;;;;;;;;;5113408;28;20028;-78
2022/11/28 08:31:18;;;;;;;47.13;21.80;;;;;;;;;;5113221;28;20051;-78
2022/11/28 08:33:46;;;;;;;47.45;21.05;;;;;;;;;;5111689;28;20027;-71
2022/11/28 08:36:15;;;;;;;26.67;12.50;;;;;;;;;;5106108;28;20062;-70
2022/11/28 08:38:42;;;;;;;46.83;22.48;;;;;;;;;;5112514;28;20032;-70
2022/11/28 08:41:17;;;;;;;48.22;18.98;;;;;;;;;;5112947;28;20020;-71
2022/11/28 08:43:43;;;;;;;40.60;20.95;;;;;;;;;;5113036;28;20031;-76
2022/11/28 08:46:11;;;;;;;41.58;19.40;;;;;;;;;;5112361;28;20429;-74
2022/11/28 08:48:38;;;;;;;40.60;20.20;;;;;;;;;;5111610;28;20055;-78
2022/11/28 08:51:03;;;;;;;27.33;14.27;;;;;;;;;;5110018;28;20034;-77
2022/11/28 08:53:29;;;;;;;34.63;17.02;;;;;;;;;;5107272;28;20027;-76
2022/11/28 08:55:55;;;;;;;36.20;17.63;;;;;;;;;;5101519;28;20367;-75
2022/11/28 08:58:20;;;;;;;36.90;16.23;;;;;;;;;;5092310;28;20058;-76
2022/11/28 09:00:45;;;;;;;37.65;16.95;;;;;;;;;;5092300;28;20028;-74
2022/11/28 09:03:18;;;;;;;48.10;22.38;;;;;;;;;;5092335;28;20032;-77
2022/11/28 09:05:45;;;;;;;41.70;18.75;;;;;;;;;;5092262;28;20355;-77
2022/11/28 09:08:15;;;;;;;21.95;11.77;;;;;;;;;;5092290;28;20032;-77
2022/11/28 09:10:43;;;;;;;21.52;12.98;;;;;;;;;;5091882;28;20028;-75
2022/11/28 09:13:09;;;;;;;28.33;13.77;;;;;;;;;;5092036;28;20504;-74
2022/11/28 09:15:38;;;;;;;36.50;16.13;;;;;;;;;;5092361;28;20060;-76
2022/11/28 09:18:04;;;;;;;26.07;13.67;;;;;;;;;;5092912;28;20031;-75
2022/11/28 09:20:29;;;;;;;22.92;10.65;;;;;;;;;;5096042;28;20619;-75
2022/11/28 09:22:55;;;;;;;22.60;10.65;;;;;;;;;;5096233;28;20463;-77
2022/11/28 09:25:20;;;;;;;23.65;11.48;;;;;;;;;;5102813;28;20082;-75
2022/11/28 09:27:46;;;;;;;23.08;12.00;;;;;;;;;;5114657;28;20027;-76
2022/11/28 09:30:12;;;;;;;25.35;13.00;;;;;;;;;;5116383;27;20084;-74
2022/11/28 09:32:37;;;;;;;28.83;16.27;;;;;;;;;;5115142;28;20026;-71
2022/11/28 09:35:03;;;;;;;23.25;13.13;;;;;;;;;;5115964;28;20044;-73
2022/11/28 09:37:29;;;;;;;33.88;16.02;;;;;;;;;;5116195;28;20500;-73
2022/11/28 09:39:55;;;;;;;24.80;11.48;;;;;;;;;;5116151;28;20023;-70
2022/11/28 09:42:27;;;;;;;42.65;16.88;;;;;;;;;;5115986;28;20110;-71
2022/11/28 09:44:59;;;;;;;30.45;13.80;;;;;;;;;;5116036;28;20023;-72
2022/11/28 09:47:30;;;;;;;28.58;14.95;;;;;;;;;;5116022;27;20539;-71
2022/11/28 09:50:14;;;;;;;23.23;14.15;;;;;;;;;;5115935;28;20088;-70
2022/11/28 09:52:55;;;;;;;20.83;10.23;;;;;;;;;;5115918;28;20024;-71
2022/11/28 09:55:48;;;;;;;31.02;14.60;;;;;;;;;;5116048;28;20107;-72
2022/11/28 09:58:40;;;;;;;29.35;14.35;;;;;;;;;;5115513;28;20023;-71
2022/11/28 10:01:42;;;;;;;23.52;11.48;;;;;;;;;;5115947;28;20031;-75
2022/11/28 10:04:43;;;;;;;24.63;10.52;;;;;;;;;;5115751;28;20051;-72
2022/11/28 10:07:21;;;;;;;17.63;10.57;;;;;;;;;;5111396;28;20040;-70
2022/11/28 10:09:52;;;;;;;27.83;14.13;;;;;;;;;;5115572;28;20020;-73
2022/11/28 10:12:42;;;;;;;31.40;14.63;;;;;;;;;;5115204;28;20471;-69
2022/11/28 10:15:46;;;;;;;30.45;15.27;;;;;;;;;;5115608;28;20181;-70
2022/11/28 10:18:50;;;;;;;27.50;13.35;;;;;;;;;;5115445;28;20024;-71
2022/11/28 10:21:34;;;;;;;33.30;17.15;;;;;;;;;;5115355;28;20042;-70
2022/11/28 10:24:05;;;;;;;16.88;9.05;;;;;;;;;;5115355;28;20023;-71
2022/11/28 10:26:42;;;;;;;25.38;11.65;;;;;;;;;;5114990;28;20031;-70
2022/11/28 10:29:16;;;;;;;19.77;9.68;;;;;;;;;;5114475;28;20059;-70
2022/11/28 10:31:44;;;;;;;22.92;10.73;;;;;;;;;;5114604;28;20055;-74
2022/11/28 10:34:35;;;;;;;22.23;11.50;;;;;;;;;;5114942;28;20035;-74
2022/11/28 10:37:09;;;;;;;;;;;;;;;;;;5115483;28;20027;-77
2022/11/28 10:39:40;;;;;;;29.13;13.75;;;;;;;;;;5114970;28;19939;-70
2022/11/28 10:42:22;;;;;;;24.10;12.30;;;;;;;;;;5114765;28;20023;-73
2022/11/28 10:44:58;;;;;;;21.75;10.35;;;;;;;;;;5114764;28;20156;-73
2022/11/28 10:47:35;;;;;;;18.42;10.77;;;;;;;;;;5114943;28;20024;-72
2022/11/28 10:50:15;;;;;;;31.23;12.60;;;;;;;;;;5114909;28;20035;-71
2022/11/28 10:52:56;;;;;;;19.15;10.98;;;;;;;;;;5114833;28;20087;-68
2022/11/28 10:55:47;;;;;;;25.25;12.80;;;;;;;;;;5114516;28;20024;-73
2022/11/28 10:58:30;;;;;;;25.10;13.50;;;;;;;;;;5031898;28;20063;-74
2022/11/28 11:00:57;;;;;;;16.67;10.20;;;;;;;;;;5031950;28;20030;-75
2022/11/28 11:03:34;;;;;;;20.00;11.30;;;;;;;;;;5031760;28;20385;-74
2022/11/28 11:06:01;;;;;;;22.17;12.10;;;;;;;;;;5031409;28;20033;-74
2022/11/28 11:08:34;;;;;;;25.98;13.48;;;;;;;;;;5031719;28;20034;-72
2022/11/28 11:11:33;;;;;;;16.85;9.73;;;;;;;;;;5031460;28;20589;-72
2022/11/28 11:14:07;;;;;;;16.85;9.70;;;;;;;;;;5031700;28;20120;-72
2022/11/28 11:16:50;;;;;;;18.92;9.70;;;;;;;;;;5031539;28;20061;-74
2022/11/28 11:19:41;;;;;;;18.55;9.73;;;;;;;;;;5031513;28;20109;-74
2022/11/28 11:22:25;;;;;;;26.35;12.25;;;;;;;;;;5027730;28;20037;-74
2022/11/28 11:25:28;;;;;;;22.90;13.27;;;;;;;;;;5031004;28;20065;-74
2022/11/28 11:27:56;;;;;;;24.95;12.43;;;;;;;;;;4991634;28;20053;-74
2022/11/28 11:30:29;;;;;;;14.43;7.43;;;;;;;;;;4991944;28;20137;-73
2022/11/28 11:32:57;;;;;;;17.60;10.25;;;;;;;;;;4991956;28;20154;-75
2022/11/28 11:35:26;;;;;;;17.05;8.52;;;;;;;;;;5030111;28;20032;-75
2022/11/28 11:37:52;;;;;;;16.83;9.13;;;;;;;;;;5051090;28;20025;-72
2022/11/28 11:40:26;;;;;;;15.73;8.13;;;;;;;;;;5050380;28;20029;-73
2022/11/28 11:42:54;;;;;;;29.73;13.82;;;;;;;;;;5033826;28;20099;-69
2022/11/28 11:45:40;;;;;;;23.73;13.20;;;;;;;;;;5050895;28;20029;-69
2022/11/28 11:48:05;;;;;;;15.13;8.32;;;;;;;;;;5050391;28;20048;-68
2022/11/28 11:50:31;;;;;;;20.55;10.38;;;;;;;;;;5050689;28;20523;-69
2022/11/28 11:53:00;;;;;;;13.48;7.97;;;;;;;;;;5050702;28;20416;-70
2022/11/28 11:55:27;;;;;;;17.83;10.20;;;;;;;;;;5033997;28;20439;-68
2022/11/28 11:57:54;;;;;;;23.48;10.70;;;;;;;;;;5050813;28;20527;-70
2022/11/28 12:00:22;;;;;;;16.50;9.95;;;;;;;;;;5050329;28;20354;-68
2022/11/28 12:02:52;;;;;;;24.90;8.77;;;;;;;;;;5089071;28;20119;-68
2022/11/28 12:05:48;;;;;;;17.35;10.48;;;;;;;;;;5093033;28;20428;-68
2022/11/28 12:08:22;;;;;;;20.88;12.80;;;;;;;;;;5102811;28;20374;-69
2022/11/28 12:10:52;;;;;;;19.92;9.48;;;;;;;;;;5091582;28;20025;-70
2022/11/28 12:13:20;;;;;;;19.35;9.90;;;;;;;;;;5092948;28;20028;-68
2022/11/28 12:15:51;;;;;;;19.17;11.52;;;;;;;;;;5092886;28;20073;-70
2022/11/28 12:18:29;;;;;;;21.52;12.50;;;;;;;;;;5092818;28;20020;-68
2022/11/28 12:21:01;;;;;;;27.38;13.60;;;;;;;;;;5092736;28;20106;-69
2022/11/28 12:24:05;;;;;;;15.35;9.27;;;;;;;;;;5092569;28;20027;-69
2022/11/28 12:26:57;;;;;;;19.40;10.02;;;;;;;;;;5046295;28;20048;-75
2022/11/28 12:29:52;;;;;;;21.48;12.05;;;;;;;;;;5050177;28;20041;-74
2022/11/28 12:32:39;;;;;;;13.77;7.97;;;;;;;;;;5050568;28;20041;-76
2022/11/28 12:35:10;;;;;;;21.27;11.27;;;;;;;;;;5050906;28;20041;-70
2022/11/28 12:38:13;;;;;;;19.48;11.50;;;;;;;;;;5049965;28;20055;-73
2022/11/28 12:40:53;;;;;;;28.02;12.70;;;;;;;;;;5050396;28;20025;-72
2022/11/28 12:43:27;;;;;;;24.20;12.32;;;;;;;;;;5050277;28;20380;-73
2022/11/28 12:46:09;;;;;;;25.45;14.18;;;;;;;;;;5049964;28;20040;-70
2022/11/28 12:48:35;;;;;;;22.10;12.40;;;;;;;;;;5049895;28;20069;-71
2022/11/28 12:51:33;;;;;;;22.70;10.98;;;;;;;;;;5049971;28;20083;-73
2022/11/28 12:54:09;;;;;;;22.83;11.60;;;;;;;;;;5053579;28;20020;-71
2022/11/28 12:56:42;;;;;;;18.95;9.48;;;;;;;;;;5054265;28;20061;-74
2022/11/28 12:59:29;;;;;;;22.65;12.10;;;;;;;;;;5054007;28;20435;-73
2022/11/28 13:02:16;;;;;;;22.92;12.00;;;;;;;;;;5071514;28;20067;-69
2022/11/28 13:05:09;;;;;;;19.10;10.38;;;;;;;;;;5096278;28;20030;-71
2022/11/28 13:07:40;;;;;;;22.35;11.63;;;;;;;;;;5096248;28;20032;-71
2022/11/28 13:10:25;;;;;;;20.85;10.95;;;;;;;;;;5096440;28;20028;-73
2022/11/28 13:13:03;;;;;;;21.40;11.90;;;;;;;;;;5096429;28;20051;-71
2022/11/28 13:15:40;;;;;;;19.55;10.65;;;;;;;;;;5096334;28;20035;-74
2022/11/28 13:18:24;;;;;;;23.42;14.07;;;;;;;;;;5096303;28;20024;-75
2022/11/28 13:20:58;;;;;;;20.73;9.13;;;;;;;;;;5095827;28;20024;-74
2022/11/28 13:23:29;;;;;;;16.55;8.77;;;;;;;;;;5096069;28;20024;-73
2022/11/28 13:26:09;;;;;;;22.08;10.52;;;;;;;;;;5107598;28;20400;-75
2022/11/28 13:28:41;;;;;;;24.70;11.60;;;;;;;;;;5116981;28;20076;-75
2022/11/28 13:31:44;;;;;;;21.15;11.70;;;;;;;;;;5115635;28;20019;-74
2022/11/28 13:34:15;;;;;;;23.55;12.38;;;;;;;;;;5092111;28;20119;-75
2022/11/28 13:37:00;;;;;;;19.77;11.80;;;;;;;;;;5115907;28;20016;-74
2022/11/28 13:39:45;;;;;;;20.67;12.77;;;;;;;;;;5053134;28;20037;-77
2022/11/28 13:42:38;;;;;;;23.13;10.30;;;;;;;;;;5032709;28;20047;-74
2022/11/28 13:45:15;;;;;;;25.52;12.82;;;;;;;;;;4971066;28;20471;-74
2022/11/28 13:47:41;;;;;;;19.25;10.25;;;;;;;;;;4955256;29;20043;-75
2022/11/28 13:50:24;;;;;;;23.63;12.27;;;;;;;;;;4954497;29;20174;-69
2022/11/28 13:53:10;;;;;;;16.20;7.65;;;;;;;;;;4955004;28;20039;-70
2022/11/28 13:55:46;;;;;;;17.05;9.45;;;;;;;;;;4954920;28;20043;-70
2022/11/28 13:58:36;;;;;;;17.13;11.10;;;;;;;;;;4954899;28;20043;-70
2022/11/28 14:01:07;;;;;;;20.70;8.93;;;;;;;;;;4954916;28;20118;-70
2022/11/28 14:03:42;;;;;;;23.48;11.05;;;;;;;;;;4954151;28;20043;-70
2022/11/28 14:06:09;;;;;;;22.73;11.05;;;;;;;;;;4954384;29;20068;-72
2022/11/28 14:08:40;;;;;;;27.02;13.60;;;;;;;;;;4954738;28;20047;-76
2022/11/28 14:11:45;;;;;;;26.30;12.55;;;;;;;;;;4954726;28;20043;-75
2022/11/28 14:14:29;;;;;;;18.17;10.30;;;;;;;;;;4954599;28;20034;-71
2022/11/28 14:17:21;;;;;;;22.90;10.68;;;;;;;;;;5005475;28;20037;-74
2022/11/28 14:20:13;;;;;;;15.30;8.45;;;;;;;;;;4973438;28;20041;-70
2022/11/28 14:23:16;;;;;;;29.83;14.95;;;;;;;;;;5017574;28;20524;-71
2022/11/28 14:25:44;;;;;;;29.27;15.80;;;;;;;;;;5032370;28;20486;-73
2022/11/28 14:28:35;;;;;;;31.98;15.80;;;;;;;;;;5032225;28;20128;-70
2022/11/28 14:31:25;;;;;;;30.38;16.08;;;;;;;;;;5032354;28;20057;-75
2022/11/28 14:33:57;;;;;;;33.38;14.77;;;;;;;;;;5020304;28;20030;-71
2022/11/28 14:36:26;;;;;;;26.08;13.57;;;;;;;;;;5015462;28;20041;-74
2022/11/28 14:39:07;;;;;;;27.98;14.30;;;;;;;;;;5031891;28;20041;-74
2022/11/28 14:42:05;;;;;;;20.70;10.40;;;;;;;;;;5032171;28;20037;-74
2022/11/28 14:44:59;;;;;;;27.83;14.25;;;;;;;;;;5031721;28;20136;-74
2022/11/28 14:47:41;;;;;;;19.48;8.93;;;;;;;;;;5031996;28;20072;-73
2022/11/28 14:50:06;;;;;;;27.85;14.45;;;;;;;;;;5031959;28;20040;-73
2022/11/28 14:52:36;;;;;;;29.60;16.58;;;;;;;;;;5015225;28;20030;-73
2022/11/28 14:55:11;;;;;;;15.82;9.60;;;;;;;;;;5031837;28;20029;-73